createdAt,value
2022-11-05T00:02:09.230Z,98218.63
2022-11-05T00:04:54.830Z,98222.50
2022-11-05T00:07:46.201Z,98224.34
2022-11-05T00:10:22.566Z,98230.16
2022-11-05T00:13:08.300Z,98224.75
2022-11-05T00:15:53.991Z,98236.47
2022-11-05T00:18:20.897Z,98230.00
2022-11-05T00:20:47.715Z,98230.78
2022-11-05T00:23:33.324Z,98237.63
2022-11-05T00:26:00.902Z,98244.69
2022-11-05T00:28:28.659Z,98250.16
2022-11-05T00:31:00.574Z,98244.25
2022-11-05T00:33:27.478Z,98244.94
2022-11-05T00:35:54.304Z,98243.66
2022-11-05T00:38:21.175Z,98240.13
2022-11-05T00:40:48.136Z,98240.03
2022-11-05T00:43:33.795Z,98243.91
2022-11-05T00:46:00.646Z,98244.25
2022-11-05T00:48:45.973Z,98241.06
2022-11-05T00:51:12.843Z,98245.63
2022-11-05T00:53:39.682Z,98254.59
2022-11-05T00:56:06.657Z,98257.25
2022-11-05T00:58:33.483Z,98252.56
2022-11-05T01:01:00.766Z,98252.47
2022-11-05T01:03:33.043Z,98257.94
2022-11-05T01:06:12.907Z,98257.78
2022-11-05T01:08:39.971Z,98238.06
2022-11-05T01:11:11.762Z,98228.91
2022-11-05T01:13:38.828Z,98271.78
2022-11-05T01:16:07.716Z,98277.94
2022-11-05T01:18:36.166Z,98274.75
2022-11-05T01:21:13.227Z,98253.19
2022-11-05T01:23:40.268Z,98274.97
2022-11-05T01:26:07.098Z,98274.53
2022-11-05T01:28:34.006Z,98278.38
2022-11-05T01:31:00.891Z,98268.16
2022-11-05T01:33:27.727Z,98279.44
2022-11-05T01:35:54.578Z,98270.31
2022-11-05T01:38:21.412Z,98265.34
2022-11-05T01:40:48.331Z,98290.00
2022-11-05T01:43:19.822Z,98304.41
2022-11-05T01:45:51.489Z,98281.03
2022-11-05T01:48:26.451Z,98318.28
2022-11-05T01:50:53.079Z,98327.94
2022-11-05T01:53:24.318Z,98311.78
2022-11-05T01:55:56.157Z,98327.25
2022-11-05T01:58:24.218Z,98313.16
2022-11-05T02:00:51.052Z,98336.44
2022-11-05T02:03:17.938Z,98325.41
2022-11-05T02:05:44.985Z,98325.53
2022-11-05T02:08:16.765Z,98319.97
2022-11-05T02:10:43.595Z,98342.34
2022-11-05T02:13:10.655Z,98356.66
2022-11-05T02:16:18.544Z,98350.75
2022-11-05T02:19:08.317Z,98347.88
2022-11-05T02:22:05.782Z,98369.09
2022-11-05T02:24:36.785Z,98365.25
2022-11-05T02:27:22.403Z,98363.31
2022-11-05T02:29:58.414Z,98365.13
2022-11-05T02:32:53.478Z,98361.03
2022-11-05T02:35:23.235Z,98379.63
2022-11-05T02:37:52.590Z,98385.06
2022-11-05T02:40:52.885Z,98377.69
2022-11-05T02:43:51.313Z,98381.41
2022-11-05T02:46:54.867Z,98393.91
2022-11-05T02:49:21.657Z,98406.59
2022-11-05T02:51:53.169Z,98395.22
2022-11-05T02:54:45.882Z,98374.75
2022-11-05T02:57:12.771Z,98404.84
2022-11-05T02:59:39.630Z,98386.91
2022-11-05T03:02:06.682Z,98408.25
2022-11-05T03:04:33.653Z,98416.31
2022-11-05T03:07:28.613Z,98424.94
2022-11-05T03:10:22.853Z,98421.44
2022-11-05T03:13:07.522Z,98412.66
2022-11-05T03:15:53.460Z,98402.56
2022-11-05T03:18:35.451Z,98413.34
2022-11-05T03:21:35.874Z,98414.13
2022-11-05T03:24:06.209Z,98423.03
2022-11-05T03:26:39.520Z,98428.88
2022-11-05T03:29:09.682Z,98416.19
2022-11-05T03:31:36.761Z,98456.75
2022-11-05T03:34:04.476Z,98459.94
2022-11-05T03:36:33.843Z,98448.91
2022-11-05T03:39:02.653Z,98452.13
2022-11-05T03:41:29.488Z,98446.59
2022-11-05T03:43:57.502Z,98429.41
2022-11-05T03:46:32.042Z,98456.84
2022-11-05T03:48:59.316Z,98462.47
2022-11-05T03:51:38.939Z,98464.06
2022-11-05T03:54:06.234Z,98479.47
2022-11-05T03:56:38.132Z,98477.06
2022-11-05T03:59:05.216Z,98474.16
2022-11-05T04:01:32.130Z,98477.53
2022-11-05T04:03:59.102Z,98484.13
2022-11-05T04:06:44.881Z,98485.69
2022-11-05T04:09:30.548Z,98482.50
2022-11-05T04:12:16.273Z,98490.22
2022-11-05T04:14:43.176Z,98487.34
2022-11-05T04:17:10.094Z,98466.34
2022-11-05T04:19:59.764Z,98495.06
2022-11-05T04:22:46.381Z,98501.63
2022-11-05T04:25:13.383Z,98506.25
2022-11-05T04:27:40.264Z,98505.78
2022-11-05T04:30:20.157Z,98503.41
2022-11-05T04:33:05.991Z,98503.88
2022-11-05T04:35:36.529Z,98494.91
2022-11-05T04:38:05.157Z,98503.88
2022-11-05T04:40:32.179Z,98467.03
2022-11-05T04:42:59.135Z,98508.84
2022-11-05T04:45:27.290Z,98483.66
2022-11-05T04:47:54.201Z,98502.94
2022-11-05T04:50:21.246Z,98508.38
2022-11-05T04:52:48.166Z,98514.94
2022-11-05T04:55:15.164Z,98523.13
2022-11-05T04:57:42.061Z,98526.50
2022-11-05T05:00:09.499Z,98521.38
2022-11-05T05:02:36.449Z,98518.19
2022-11-05T05:05:03.415Z,98534.03
2022-11-05T05:07:30.276Z,98532.50
2022-11-05T05:09:57.170Z,98534.09
2022-11-05T05:12:24.053Z,98530.56
2022-11-05T05:14:50.912Z,98524.66
2022-11-05T05:17:17.789Z,98525.03
2022-11-05T05:20:03.137Z,98533.50
2022-11-05T05:22:30.051Z,98535.94
2022-11-05T05:24:56.869Z,98506.22
2022-11-05T05:27:24.189Z,98536.72
2022-11-05T05:29:51.065Z,98540.06
2022-11-05T05:32:17.908Z,98541.34
2022-11-05T05:34:44.775Z,98542.94
2022-11-05T05:37:11.656Z,98548.38
2022-11-05T05:39:38.480Z,98550.59
2022-11-05T05:42:05.403Z,98555.75
2022-11-05T05:44:32.209Z,98553.03
2022-11-05T05:46:59.162Z,98563.91
2022-11-05T05:49:26.013Z,98575.09
2022-11-05T05:51:52.878Z,98560.09
2022-11-05T05:54:19.741Z,98587.91
2022-11-05T05:56:46.593Z,98585.34
2022-11-05T05:59:13.409Z,98585.19
2022-11-05T06:01:40.371Z,98582.47
2022-11-05T06:04:07.347Z,98589.69
2022-11-05T06:06:34.204Z,98597.22
2022-11-05T06:09:01.119Z,98594.34
2022-11-05T06:11:28.069Z,98591.63
2022-11-05T06:13:54.879Z,98594.78
2022-11-05T06:16:21.694Z,98614.81
2022-11-05T06:18:48.846Z,98616.75
2022-11-05T06:21:17.031Z,98626.31
2022-11-05T06:23:44.682Z,98621.66
2022-11-05T06:26:13.415Z,98627.41
2022-11-05T06:28:41.989Z,98609.03
2022-11-05T06:31:12.327Z,98637.97
2022-11-05T06:33:39.369Z,98640.22
2022-11-05T06:36:06.988Z,98651.75
2022-11-05T06:38:35.037Z,98661.03
2022-11-05T06:41:07.244Z,98669.81
2022-11-05T06:43:36.853Z,98647.44
2022-11-05T06:46:03.837Z,98677.34
2022-11-05T06:48:30.818Z,98679.56
2022-11-05T06:50:57.679Z,98672.69
2022-11-05T06:53:24.549Z,98681.47
2022-11-05T06:55:51.379Z,98696.19
2022-11-05T06:58:18.209Z,98701.97
2022-11-05T07:00:45.428Z,98674.78
2022-11-05T07:03:12.941Z,98700.22
2022-11-05T07:05:45.465Z,98714.91
2022-11-05T07:08:12.360Z,98714.28
2022-11-05T07:10:39.247Z,98708.19
2022-11-05T07:13:08.445Z,98719.88
2022-11-05T07:15:36.694Z,98721.31
2022-11-05T07:18:04.309Z,98719.41
2022-11-05T07:20:34.327Z,98711.25
2022-11-05T07:23:05.992Z,98717.78
2022-11-05T07:25:33.018Z,98724.03
2022-11-05T07:27:59.973Z,98730.91
2022-11-05T07:30:26.954Z,98722.28
2022-11-05T07:32:53.940Z,98723.25
2022-11-05T07:35:20.791Z,98730.56
2022-11-05T07:37:48.874Z,98730.56
2022-11-05T07:40:16.506Z,98713.31
2022-11-05T07:42:44.065Z,98732.84
2022-11-05T07:45:11.604Z,98749.94
2022-11-05T07:47:59.574Z,98743.38
2022-11-05T07:50:30.927Z,98750.72
2022-11-05T07:53:05.450Z,98754.56
2022-11-05T07:55:32.438Z,98752.31
2022-11-05T07:57:59.531Z,98765.88
2022-11-05T08:00:26.777Z,98763.41
2022-11-05T08:03:08.741Z,98746.75
2022-11-05T08:05:37.832Z,98768.84
2022-11-05T08:08:05.085Z,98778.13
2022-11-05T08:10:32.532Z,98783.56
2022-11-05T08:12:59.500Z,98777.00
2022-11-05T08:15:26.339Z,98776.03
2022-11-05T08:18:14.228Z,98777.13
2022-11-05T08:20:41.608Z,98777.75
2022-11-05T08:23:08.984Z,98771.53
2022-11-05T08:25:36.096Z,98767.22
2022-11-05T08:28:15.619Z,98767.53
2022-11-05T08:30:42.587Z,98765.44
2022-11-05T08:33:11.626Z,98759.22
2022-11-05T08:35:38.892Z,98744.13
2022-11-05T08:38:06.859Z,98762.25
2022-11-05T08:40:34.771Z,98762.25
2022-11-05T08:43:03.323Z,98775.50
2022-11-05T08:45:30.207Z,98775.09
2022-11-05T08:48:05.336Z,98754.63
2022-11-05T08:50:32.566Z,98768.59
2022-11-05T08:52:59.506Z,98781.22
2022-11-05T08:55:26.351Z,98783.94
2022-11-05T08:57:57.405Z,98785.06
2022-11-05T09:00:24.782Z,98785.53
2022-11-05T09:02:51.695Z,98784.91
2022-11-05T09:05:18.722Z,98788.91
2022-11-05T09:07:46.727Z,98793.25
2022-11-05T09:10:13.558Z,98797.84
2022-11-05T09:12:40.462Z,98801.06
2022-11-05T09:15:07.771Z,98802.69
2022-11-05T09:17:34.646Z,98802.69
2022-11-05T09:20:02.269Z,98800.78
2022-11-05T09:22:29.229Z,98803.78
2022-11-05T09:24:56.038Z,98810.00
2022-11-05T09:27:22.950Z,98815.78
2022-11-05T09:29:49.751Z,98816.88
2022-11-05T09:32:19.182Z,98808.72
2022-11-05T09:34:46.084Z,98818.81
2022-11-05T09:37:12.979Z,98819.13
2022-11-05T09:39:39.798Z,98824.88
2022-11-05T09:42:08.213Z,98832.22
2022-11-05T09:45:04.047Z,98810.13
2022-11-05T09:47:43.983Z,98828.53
2022-11-05T09:50:24.487Z,98831.09
2022-11-05T09:52:51.483Z,98837.78
2022-11-05T09:55:26.435Z,98831.69
2022-11-05T09:57:56.892Z,98855.34
2022-11-05T10:00:23.899Z,98852.63
2022-11-05T10:03:03.793Z,98856.97
2022-11-05T10:05:30.688Z,98859.19
2022-11-05T10:08:06.333Z,98868.47
2022-11-05T10:11:00.916Z,98858.69
2022-11-05T10:13:35.401Z,98863.97
2022-11-05T10:16:28.406Z,98866.69
2022-11-05T10:18:59.497Z,98860.94
2022-11-05T10:21:51.417Z,98867.03
2022-11-05T10:24:15.712Z,98869.75
2022-11-05T10:26:43.470Z,98880.31
2022-11-05T10:29:12.432Z,98877.88
2022-11-05T10:31:39.349Z,98887.03
2022-11-05T10:34:07.004Z,98880.00
2022-11-05T10:36:37.268Z,98871.84
2022-11-05T10:39:10.682Z,98870.38
2022-11-05T10:41:59.108Z,98859.31
2022-11-05T10:44:31.833Z,98864.94
2022-11-05T10:47:10.748Z,98866.84
2022-11-05T10:49:54.164Z,98867.47
2022-11-05T10:52:29.257Z,98874.22
2022-11-05T10:54:58.824Z,98873.06
2022-11-05T10:57:34.723Z,98856.41
2022-11-05T11:00:16.770Z,98877.72
2022-11-05T11:02:46.287Z,98887.00
2022-11-05T11:05:21.656Z,98883.31
2022-11-05T11:08:23.335Z,98892.72
2022-11-05T11:10:53.849Z,98896.69
2022-11-05T11:13:25.847Z,98902.44
2022-11-05T11:15:52.809Z,98902.13
2022-11-05T11:18:32.478Z,98896.53
2022-11-05T11:21:12.022Z,98903.19
2022-11-05T11:23:39.922Z,98897.59
2022-11-05T11:26:06.850Z,98899.03
2022-11-05T11:28:37.264Z,98892.78
2022-11-05T11:31:15.894Z,98888.47
2022-11-05T11:33:44.833Z,98895.03
2022-11-05T11:36:11.850Z,98877.66
2022-11-05T11:38:38.705Z,98906.06
2022-11-05T11:41:11.540Z,98899.22
2022-11-05T11:43:40.184Z,98906.53
2022-11-05T11:46:15.260Z,98904.94
2022-11-05T11:48:43.320Z,98910.72
2022-11-05T11:51:30.375Z,98903.66
2022-11-05T11:54:00.731Z,98902.84
2022-11-05T11:56:27.834Z,98903.66
2022-11-05T11:58:55.835Z,98902.06
2022-11-05T12:01:40.810Z,98905.56
2022-11-05T12:04:07.557Z,98910.03
2022-11-05T12:06:37.189Z,98906.81
2022-11-05T12:09:34.669Z,98904.88
2022-11-05T12:12:13.066Z,98910.31
2022-11-05T12:14:46.441Z,98909.81
2022-11-05T12:17:23.802Z,98914.94
2022-11-05T12:19:56.763Z,98906.47
2022-11-05T12:22:26.702Z,98905.72
2022-11-05T12:25:30.812Z,98919.59
2022-11-05T12:28:28.687Z,98918.97
2022-11-05T12:31:34.395Z,98923.59
2022-11-05T12:34:19.415Z,98925.56
2022-11-05T12:37:12.115Z,98921.84
2022-11-05T12:39:48.217Z,98923.31
2022-11-05T12:42:29.908Z,98928.47
2022-11-05T12:45:44.352Z,98927.50
2022-11-05T12:48:42.938Z,98926.53
2022-11-05T12:51:26.848Z,98929.25
2022-11-05T12:53:59.247Z,98943.34
2022-11-05T12:56:35.016Z,98953.09
2022-11-05T12:59:17.194Z,98958.81
2022-11-05T13:01:46.774Z,98924.34
2022-11-05T13:04:25.387Z,98924.53
2022-11-05T13:06:53.076Z,98909.75
2022-11-05T13:09:41.703Z,98959.66
2022-11-05T13:12:12.009Z,98960.28
2022-11-05T13:14:48.652Z,98963.34
2022-11-05T13:17:43.156Z,98937.03
2022-11-05T13:20:17.559Z,98947.69
2022-11-05T13:22:45.404Z,98958.75
2022-11-05T13:25:12.145Z,98961.59
2022-11-05T13:28:15.821Z,98961.06
2022-11-05T13:30:44.232Z,98963.28
2022-11-05T13:33:20.483Z,98963.00
2022-11-05T13:36:28.290Z,98963.63
2022-11-05T13:39:32.351Z,98983.00
2022-11-05T13:42:17.623Z,98981.41
2022-11-05T13:45:04.557Z,98979.78
2022-11-05T13:47:52.869Z,98997.88
2022-11-05T13:50:29.686Z,98993.69
2022-11-05T13:53:02.395Z,98998.50
2022-11-05T13:55:44.143Z,99000.88
2022-11-05T13:58:29.886Z,99012.56
2022-11-05T14:01:00.842Z,99017.53
2022-11-05T14:03:27.822Z,99017.06
2022-11-05T14:06:20.764Z,99016.41
2022-11-05T14:08:47.635Z,99031.13
2022-11-05T14:11:34.572Z,99025.69
2022-11-05T14:14:06.832Z,99031.91
2022-11-05T14:16:52.809Z,99037.34
2022-11-05T14:19:19.571Z,99036.53
2022-11-05T14:22:10.561Z,99044.69
2022-11-05T14:24:37.363Z,99047.72
2022-11-05T14:27:04.085Z,99048.50
2022-11-05T14:29:39.865Z,99058.03
2022-11-05T14:32:21.603Z,99052.59
2022-11-05T14:34:48.432Z,99062.47
2022-11-05T14:37:22.639Z,99064.69
2022-11-05T14:39:49.482Z,99074.59
2022-11-05T14:42:29.100Z,99078.63
2022-11-05T14:45:03.996Z,99083.03
2022-11-05T14:47:39.229Z,99052.72
2022-11-05T14:50:32.467Z,99072.50
2022-11-05T14:53:02.731Z,99072.00
2022-11-05T14:55:33.892Z,99069.09
2022-11-05T14:58:02.595Z,99094.84
2022-11-05T15:00:29.323Z,99088.41
2022-11-05T15:02:57.853Z,99090.03
2022-11-05T15:05:38.734Z,99094.06
2022-11-05T15:08:26.770Z,99100.28
2022-11-05T15:10:54.046Z,99097.06
2022-11-05T15:13:30.200Z,99094.34
2022-11-05T15:15:56.977Z,99097.69
2022-11-05T15:18:30.577Z,99103.63
2022-11-05T15:20:59.037Z,99097.69
2022-11-05T15:23:26.931Z,99111.28
2022-11-05T15:26:02.832Z,99109.06
2022-11-05T15:28:37.103Z,99113.47
2022-11-05T15:31:12.964Z,99122.13
2022-11-05T15:33:42.317Z,99121.63
2022-11-05T15:36:18.308Z,99119.72
2022-11-05T15:39:01.980Z,99122.75
2022-11-05T15:41:34.424Z,99128.81
2022-11-05T15:44:02.765Z,99124.97
2022-11-05T15:46:29.952Z,99126.88
2022-11-05T15:49:07.058Z,99129.94
2022-11-05T15:51:33.927Z,99129.41
2022-11-05T15:54:28.557Z,99127.00
2022-11-05T15:56:52.092Z,99132.25
2022-11-05T15:59:22.940Z,99143.28
2022-11-05T16:01:56.429Z,99148.72
2022-11-05T16:04:25.768Z,99143.63
2022-11-05T16:06:54.176Z,99145.91
2022-11-05T16:09:29.008Z,99145.09
2022-11-05T16:12:20.371Z,99146.69
2022-11-05T16:15:00.409Z,99153.75
2022-11-05T16:17:33.423Z,99156.78
2022-11-05T16:20:00.448Z,99163.81
2022-11-05T16:22:46.918Z,99158.88
2022-11-05T16:25:23.419Z,99159.19
2022-11-05T16:27:50.265Z,99166.03
2022-11-05T16:30:18.255Z,99172.88
2022-11-05T16:32:45.154Z,99172.69
2022-11-05T16:35:27.928Z,99188.50
2022-11-05T16:37:54.791Z,99187.78
2022-11-05T16:40:23.773Z,99183.97
2022-11-05T16:42:52.052Z,99184.19
2022-11-05T16:45:20.792Z,99183.47
2022-11-05T16:47:47.741Z,99184.56
2022-11-05T16:50:30.589Z,99183.88
2022-11-05T16:52:57.420Z,99184.47
2022-11-05T16:55:24.259Z,99182.25
2022-11-05T16:57:54.817Z,99192.44
2022-11-05T17:00:22.107Z,99193.66
2022-11-05T17:02:49.337Z,99192.84
2022-11-05T17:05:36.655Z,99187.41
2022-11-05T17:08:03.590Z,99171.72
2022-11-05T17:10:30.777Z,99186.28
2022-11-05T17:12:57.642Z,99191.53
2022-11-05T17:15:30.968Z,99197.66
2022-11-05T17:17:58.328Z,99189.91
2022-11-05T17:20:40.400Z,99169.31
2022-11-05T17:23:16.174Z,99207.50
2022-11-05T17:25:44.463Z,99202.69
2022-11-05T17:28:11.683Z,99205.13
2022-11-05T17:30:41.382Z,99203.19
2022-11-05T17:33:10.537Z,99201.59
2022-11-05T17:35:39.576Z,99199.19
2022-11-05T17:38:06.415Z,99204.00
2022-11-05T17:40:34.000Z,99214.56
2022-11-05T17:43:00.893Z,99215.69
2022-11-05T17:45:27.720Z,99224.22
2022-11-05T17:47:54.634Z,99224.03
2022-11-05T17:50:21.521Z,99223.22
2022-11-05T17:52:48.353Z,99220.19
2022-11-05T17:55:18.192Z,99228.34
2022-11-05T17:57:45.199Z,99221.22
2022-11-05T18:00:12.983Z,99228.25
2022-11-05T18:02:39.900Z,99229.38
2022-11-05T18:05:07.217Z,99226.13
2022-11-05T18:07:34.260Z,99233.28
2022-11-05T18:10:01.130Z,99234.91
2022-11-05T18:12:28.041Z,99232.97
2022-11-05T18:14:54.859Z,99231.25
2022-11-05T18:17:21.760Z,99233.06
2022-11-05T18:19:48.595Z,99231.97
2022-11-05T18:22:16.329Z,99247.16
2022-11-05T18:24:43.153Z,99247.34
2022-11-05T18:27:10.158Z,99244.63
2022-11-05T18:29:37.151Z,99243.66
2022-11-05T18:32:04.119Z,99249.06
2022-11-05T18:34:30.954Z,99254.69
2022-11-05T18:36:57.863Z,99228.66
2022-11-05T18:39:24.853Z,99253.09
2022-11-05T18:41:51.701Z,99255.03
2022-11-05T18:44:22.742Z,99265.38
2022-11-05T18:46:58.000Z,99269.16
2022-11-05T18:49:26.193Z,99266.66
2022-11-05T18:51:53.030Z,99269.47
2022-11-05T18:54:20.023Z,99267.66
2022-11-05T18:56:47.025Z,99271.00
2022-11-05T18:59:35.863Z,99285.69
2022-11-05T19:02:01.899Z,99241.31
2022-11-05T19:04:30.549Z,99270.81
2022-11-05T19:07:03.123Z,99282.19
2022-11-05T19:09:31.817Z,99273.31
2022-11-05T19:11:58.764Z,99290.69
2022-11-05T19:14:25.589Z,99299.75
2022-11-05T19:16:52.451Z,99311.31
2022-11-05T19:19:19.360Z,99306.97
2022-11-05T19:21:46.187Z,99316.72
2022-11-05T19:24:20.100Z,99311.91
2022-11-05T19:26:47.536Z,99318.94
2022-11-05T19:29:15.007Z,99316.53
2022-11-05T19:31:42.035Z,99329.31
2022-11-05T19:34:08.957Z,99332.00
2022-11-05T19:36:35.806Z,99329.88
2022-11-05T19:39:06.364Z,99333.16
2022-11-05T19:41:33.333Z,99336.38
2022-11-05T19:44:01.735Z,99343.72
2022-11-05T19:46:29.249Z,99341.00
2022-11-05T19:48:56.284Z,99327.91
2022-11-05T19:51:24.521Z,99352.66
2022-11-05T19:53:52.841Z,99307.56
2022-11-05T19:56:21.924Z,99362.72
2022-11-05T19:58:49.118Z,99361.94
2022-11-05T20:01:16.767Z,99359.22
2022-11-05T20:03:43.852Z,99364.91
2022-11-05T20:06:15.353Z,99367.34
2022-11-05T20:09:06.697Z,99350.50
2022-11-05T20:11:29.582Z,99368.75
2022-11-05T20:13:56.762Z,99352.72
2022-11-05T20:16:25.534Z,99379.88
2022-11-05T20:18:52.480Z,99385.31
2022-11-05T20:21:19.403Z,99368.41
2022-11-05T20:23:46.331Z,99392.44
2022-11-05T20:26:13.489Z,99394.63
2022-11-05T20:28:40.607Z,99389.00
2022-11-05T20:31:12.057Z,99396.13
2022-11-05T20:33:39.089Z,99400.44
2022-11-05T20:36:07.486Z,99382.22
2022-11-05T20:38:34.305Z,99396.63
2022-11-05T20:41:05.225Z,99370.63
2022-11-05T20:43:32.034Z,99407.47
2022-11-05T20:45:58.859Z,99408.31
2022-11-05T20:48:25.740Z,99405.66
2022-11-05T20:50:52.967Z,99407.84
2022-11-05T20:53:19.778Z,99406.47
2022-11-05T20:55:47.433Z,99388.38
2022-11-05T20:58:15.429Z,99367.13
2022-11-05T21:00:50.866Z,99405.59
2022-11-05T21:03:18.196Z,99404.47
2022-11-05T21:05:48.773Z,99402.88
2022-11-05T21:08:15.901Z,99401.25
2022-11-05T21:10:47.172Z,99394.22
2022-11-05T21:13:18.314Z,99395.34
2022-11-05T21:15:52.606Z,99405.66
2022-11-05T21:18:22.172Z,99402.44
2022-11-05T21:20:49.123Z,99404.34
2022-11-05T21:23:16.141Z,99407.06
2022-11-05T21:25:43.440Z,99409.78
2022-11-05T21:28:11.257Z,99410.16
2022-11-05T21:30:41.529Z,99410.34
2022-11-05T21:33:08.676Z,99408.22
2022-11-05T21:35:39.700Z,99411.75
2022-11-05T21:38:06.847Z,99407.50
2022-11-05T21:40:33.697Z,99415.56
2022-11-05T21:43:00.523Z,99416.66
2022-11-05T21:45:27.351Z,99406.16
2022-11-05T21:47:54.256Z,99397.28
2022-11-05T21:50:41.091Z,99416.44
2022-11-05T21:53:34.266Z,99421.06
2022-11-05T21:56:19.606Z,99417.81
2022-11-05T21:59:05.286Z,99413.00
2022-11-05T22:01:32.210Z,99409.91
2022-11-05T22:04:03.129Z,99406.31
2022-11-05T22:06:33.075Z,99400.91
2022-11-05T22:09:00.018Z,99404.94
2022-11-05T22:11:26.841Z,99406.53
2022-11-05T22:13:53.799Z,99410.84
2022-11-05T22:16:20.652Z,99418.72
2022-11-05T22:18:47.505Z,99420.84
2022-11-05T22:21:18.277Z,99419.75
2022-11-05T22:23:45.113Z,99419.41
2022-11-05T22:26:11.932Z,99420.31
2022-11-05T22:28:38.771Z,99414.00
2022-11-05T22:31:12.628Z,99415.69
2022-11-05T22:33:39.541Z,99421.75
2022-11-05T22:36:06.791Z,99425.31
2022-11-05T22:38:33.616Z,99417.47
2022-11-05T22:41:00.575Z,99418.84
2022-11-05T22:43:27.389Z,99413.22
2022-11-05T22:45:54.265Z,99413.47
2022-11-05T22:48:21.286Z,99420.28
2022-11-05T22:50:48.097Z,99415.41
2022-11-05T22:53:14.905Z,99420.28
2022-11-05T22:55:41.797Z,99421.38
2022-11-05T22:58:08.634Z,99421.97
2022-11-05T23:00:36.806Z,99430.91
2022-11-05T23:03:04.010Z,99429.28
2022-11-05T23:05:31.017Z,99421.97
2022-11-05T23:08:16.821Z,99417.66
2022-11-05T23:11:02.487Z,99422.31
2022-11-05T23:13:29.392Z,99425.53
2022-11-05T23:16:15.086Z,99425.25
2022-11-05T23:19:00.935Z,99420.94
2022-11-05T23:21:46.544Z,99426.34
2022-11-05T23:24:13.505Z,99420.94
2022-11-05T23:26:52.728Z,99430.94
2022-11-05T23:29:26.023Z,99430.94
2022-11-05T23:32:11.717Z,99431.78
2022-11-05T23:34:38.849Z,99432.06
2022-11-05T23:37:24.359Z,99435.56
2022-11-05T23:39:51.406Z,99436.13
2022-11-05T23:42:36.721Z,99408.97
2022-11-05T23:45:23.110Z,99441.03
2022-11-05T23:48:08.576Z,99442.94
2022-11-05T23:50:39.546Z,99447.84
2022-11-05T23:53:07.212Z,99444.31
2022-11-05T23:55:34.134Z,99440.81
2022-11-05T23:58:01.015Z,99447.31
